Weldon Spring Heights, Missouri
Current Conditions -  °F | °C
As of 1:54 PM on Thursday 23 Oct 2014 (Local Time) from KSUS Reporting Station
Broken Clouds Broken Clouds  
Wind Chill: 63°   Ceiling: 20000
Heat Index: 63°   Visibility: 10mi
Dew Point: 44°   Wind: 5mph
Humidity: 50%   Direction: 160°SSE
Pressure: 30.13"   Gusts: NA
Location:  38.7167°N, 90.6411°W
Report Text: KSUS 231854Z 16004KT 10SM SCT080 BKN200 17/07 A3013 RMK AO2 SLP206 T01720067
Loading
Personal Weather Stations






























Interactive Weather Map
Tropical Storm Tracking
New forecast layout! Learn more

10-Day Weather Forecast

Advertisements
Track Severe Weather on mobile